Terminal Aerodrome Forecast
Issued by NWS Brownsville, TX

Home | Current Version | Previous Version | Text Only | Print | Product List | Glossary On
Versions: 1 2 3 4 5 6 7 8 9 10 11 12 13 14 15 16 17 18 19 20 21 22 23
000
FTUS44 KBRO 180800 AAA
TAFHRL
TAF AMD
KHRL 180807Z 1808/1906 15008KT P6SM BKN035
      TEMPO 1810/1814 4SM BR BKN020
     FM181400 18012KT P6SM VCSH OVC020
     FM182100 17015KT P6SM VCSH OVC040
     FM190200 16007KT P6SM OVC025=

USA.gov is the U.S. government's official web portal to all federal, state and local government web resources and services.